createdAt,value
2023-04-09T00:00:43.633Z,20.67
2023-04-09T00:03:10.885Z,25.10
2023-04-09T00:05:41.133Z,24.23
2023-04-09T00:08:08.102Z,25.60
2023-04-09T00:10:35.392Z,25.85
2023-04-09T00:13:02.282Z,26.75
2023-04-09T00:15:31.561Z,24.33
2023-04-09T00:17:59.672Z,26.80
2023-04-09T00:20:26.754Z,24.27
2023-04-09T00:22:54.234Z,25.05
2023-04-09T00:25:21.143Z,31.77
2023-04-09T00:27:48.025Z,28.50
2023-04-09T00:30:15.087Z,31.15
2023-04-09T00:32:42.242Z,29.83
2023-04-09T00:35:09.534Z,25.15
2023-04-09T00:37:36.474Z,26.75
2023-04-09T00:40:03.947Z,25.70
2023-04-09T00:42:34.843Z,31.35
2023-04-09T00:45:02.140Z,25.25
2023-04-09T00:47:31.039Z,22.08
2023-04-09T00:49:58.129Z,27.65
2023-04-09T00:52:25.384Z,23.92
2023-04-09T00:54:52.571Z,25.83
2023-04-09T00:57:19.792Z,24.88
2023-04-09T00:59:46.784Z,24.42
2023-04-09T01:02:13.931Z,23.92
2023-04-09T01:04:41.776Z,22.27
2023-04-09T01:07:23.779Z,24.27
2023-04-09T01:10:06.079Z,24.05
2023-04-09T01:12:56.561Z,18.90
2023-04-09T01:15:26.978Z,25.08
2023-04-09T01:18:02.104Z,19.75
2023-04-09T01:20:57.548Z,19.92
2023-04-09T01:23:58.231Z,20.27
2023-04-09T01:27:04.189Z,20.38
2023-04-09T01:29:51.966Z,17.73
2023-04-09T01:32:19.076Z,25.05
2023-04-09T01:34:46.551Z,22.73
2023-04-09T01:37:13.468Z,20.10
2023-04-09T01:39:40.613Z,25.33
2023-04-09T01:42:11.233Z,25.35
2023-04-09T01:44:41.603Z,24.05
2023-04-09T01:47:08.962Z,20.83
2023-04-09T01:49:36.155Z,24.23
2023-04-09T01:52:03.206Z,26.83
2023-04-09T01:54:30.322Z,23.77
2023-04-09T01:56:57.781Z,28.80
2023-04-09T01:59:24.838Z,24.42
2023-04-09T02:02:03.052Z,24.45
2023-04-09T02:04:39.349Z,24.05
2023-04-09T02:07:30.983Z,22.48
2023-04-09T02:09:58.497Z,26.35
2023-04-09T02:12:25.445Z,29.35
2023-04-09T02:14:52.595Z,25.33
2023-04-09T02:17:19.621Z,25.83
2023-04-09T02:19:47.356Z,23.90
2023-04-09T02:22:15.175Z,27.13
2023-04-09T02:24:42.219Z,22.83
2023-04-09T02:27:09.249Z,23.75
2023-04-09T02:29:38.350Z,27.98
2023-04-09T02:32:05.475Z,30.50
2023-04-09T02:34:32.501Z,22.73
2023-04-09T02:36:59.647Z,23.75
2023-04-09T02:39:27.417Z,26.17
2023-04-09T02:41:54.370Z,25.27
2023-04-09T02:44:21.300Z,21.30
2023-04-09T02:46:49.528Z,26.65
2023-04-09T02:49:16.812Z,27.38
2023-04-09T02:51:43.771Z,22.88
2023-04-09T02:54:10.856Z,26.63
2023-04-09T02:56:37.862Z,26.95
2023-04-09T02:59:04.874Z,23.35
2023-04-09T03:01:31.981Z,22.60
2023-04-09T03:04:00.152Z,24.25
2023-04-09T03:06:27.180Z,22.77
2023-04-09T03:08:54.134Z,27.77
2023-04-09T03:11:21.132Z,29.10
2023-04-09T03:13:48.149Z,23.75
2023-04-09T03:16:15.123Z,31.23
2023-04-09T03:18:42.165Z,22.77
2023-04-09T03:21:09.340Z,22.90
2023-04-09T03:23:39.554Z,25.23
2023-04-09T03:26:07.846Z,22.15
2023-04-09T03:28:42.575Z,29.52
2023-04-09T03:31:09.703Z,24.33
2023-04-09T03:33:38.957Z,24.10
2023-04-09T03:36:06.638Z,23.70
2023-04-09T03:38:54.605Z,22.60
2023-04-09T03:41:43.648Z,26.55
2023-04-09T03:44:14.419Z,26.08
2023-04-09T03:47:13.662Z,24.48
2023-04-09T03:49:40.781Z,21.52
2023-04-09T03:52:16.619Z,24.55
2023-04-09T03:54:46.846Z,22.70
2023-04-09T03:57:18.726Z,31.45
2023-04-09T03:59:48.954Z,32.35
2023-04-09T04:02:19.318Z,21.80
2023-04-09T04:04:54.591Z,23.60
2023-04-09T04:07:23.404Z,23.48
2023-04-09T04:09:58.068Z,23.33
2023-04-09T04:12:25.086Z,22.20
2023-04-09T04:15:03.142Z,20.67
2023-04-09T04:17:38.242Z,20.55
2023-04-09T04:20:12.777Z,21.23
2023-04-09T04:22:52.400Z,24.17
2023-04-09T04:25:20.674Z,24.30
2023-04-09T04:27:48.148Z,23.92
2023-04-09T04:30:17.662Z,25.40
2023-04-09T04:32:56.117Z,19.90
2023-04-09T04:35:23.530Z,23.45
2023-04-09T04:37:54.175Z,24.17
2023-04-09T04:40:22.093Z,18.33
2023-04-09T04:42:55.770Z,19.58
2023-04-09T04:45:22.772Z,21.08
2023-04-09T04:47:57.709Z,26.73
2023-04-09T04:50:24.741Z,16.92
2023-04-09T04:52:57.348Z,23.58
2023-04-09T04:55:28.202Z,20.13
2023-04-09T04:57:55.865Z,19.65
2023-04-09T05:00:26.139Z,20.52
2023-04-09T05:02:53.569Z,17.08
2023-04-09T05:05:41.217Z,18.60
2023-04-09T05:08:08.830Z,20.05
2023-04-09T05:10:35.981Z,19.05
2023-04-09T05:13:03.063Z,20.55
2023-04-09T05:15:40.871Z,22.13
2023-04-09T05:18:08.925Z,21.27
2023-04-09T05:20:36.647Z,22.90
2023-04-09T05:23:10.281Z,24.60
2023-04-09T05:25:41.595Z,18.98
2023-04-09T05:28:16.813Z,20.70
2023-04-09T05:30:48.061Z,19.40
2023-04-09T05:33:16.436Z,21.92
2023-04-09T05:35:43.721Z,18.90
2023-04-09T05:38:11.174Z,19.60
2023-04-09T05:40:38.710Z,16.50
2023-04-09T05:43:11.329Z,16.90
2023-04-09T05:45:41.395Z,19.98
2023-04-09T05:48:08.694Z,17.60
2023-04-09T05:50:47.168Z,15.30
2023-04-09T05:53:21.749Z,16.58
2023-04-09T05:55:51.485Z,14.90
2023-04-09T05:58:22.168Z,19.00
2023-04-09T06:00:51.675Z,13.57
2023-04-09T06:03:19.824Z,15.48
2023-04-09T06:05:48.346Z,15.85
2023-04-09T06:08:15.424Z,18.88
2023-04-09T06:10:42.316Z,15.95
2023-04-09T06:13:10.243Z,20.38
2023-04-09T06:15:38.885Z,18.20
2023-04-09T06:18:05.959Z,17.42
2023-04-09T06:20:33.032Z,15.95
2023-04-09T06:22:59.969Z,18.10
2023-04-09T06:25:27.050Z,14.20
2023-04-09T06:27:53.961Z,13.68
2023-04-09T06:30:20.934Z,14.00
2023-04-09T06:32:54.653Z,14.07
2023-04-09T06:35:22.174Z,18.75
2023-04-09T06:37:49.153Z,12.80
2023-04-09T06:40:16.245Z,19.30
2023-04-09T06:42:43.165Z,11.82
2023-04-09T06:45:17.885Z,10.30
2023-04-09T06:47:44.934Z,12.00
2023-04-09T06:50:11.844Z,9.48
2023-04-09T06:52:38.830Z,10.80
2023-04-09T06:55:06.339Z,12.32
2023-04-09T06:57:33.348Z,9.40
2023-04-09T07:00:00.344Z,9.15
2023-04-09T07:02:28.047Z,8.45
2023-04-09T07:04:55.247Z,10.48
2023-04-09T07:07:24.299Z,10.00
2023-04-09T07:09:53.080Z,7.85
2023-04-09T07:12:32.702Z,8.35
2023-04-09T07:15:03.649Z,7.97
2023-04-09T07:17:31.368Z,10.30
2023-04-09T07:19:58.339Z,7.72
2023-04-09T07:22:26.802Z,8.05
2023-04-09T07:24:54.974Z,9.05
2023-04-09T07:27:26.012Z,6.93
2023-04-09T07:29:57.860Z,9.50
2023-04-09T07:32:25.569Z,10.55
2023-04-09T07:34:53.044Z,5.13
2023-04-09T07:37:20.819Z,10.85
2023-04-09T07:39:48.297Z,6.32
2023-04-09T07:42:15.450Z,6.43
2023-04-09T07:44:42.461Z,11.88
2023-04-09T07:47:09.512Z,6.47
2023-04-09T07:49:37.494Z,8.27
2023-04-09T07:52:04.832Z,5.80
2023-04-09T07:54:31.931Z,10.93
2023-04-09T07:56:59.434Z,8.80
2023-04-09T07:59:27.643Z,6.07
2023-04-09T08:01:54.684Z,5.63
2023-04-09T08:04:22.171Z,7.18
2023-04-09T08:06:51.515Z,8.82
2023-04-09T08:09:18.626Z,6.45
2023-04-09T08:11:46.227Z,6.82
2023-04-09T08:14:13.938Z,7.20
2023-04-09T08:16:42.350Z,5.65
2023-04-09T08:19:09.677Z,6.68
2023-04-09T08:21:43.060Z,6.53
2023-04-09T08:24:13.203Z,5.68
2023-04-09T08:26:40.629Z,5.50
2023-04-09T08:29:08.209Z,6.35
2023-04-09T08:31:36.651Z,6.32
2023-04-09T08:34:03.933Z,7.30
2023-04-09T08:36:31.837Z,6.30
2023-04-09T08:39:00.693Z,8.38
2023-04-09T08:41:30.921Z,7.28
2023-04-09T08:43:59.260Z,7.88
2023-04-09T08:46:27.319Z,8.88
2023-04-09T08:48:54.761Z,7.95
2023-04-09T08:51:23.079Z,8.18
2023-04-09T08:54:03.254Z,8.55
2023-04-09T08:56:31.133Z,13.00
2023-04-09T08:58:58.830Z,6.10
2023-04-09T09:01:27.480Z,11.35
2023-04-09T09:04:03.909Z,7.32
2023-04-09T09:06:41.185Z,11.05
2023-04-09T09:09:09.470Z,8.57
2023-04-09T09:11:37.769Z,6.60
2023-04-09T09:14:06.295Z,6.55
2023-04-09T09:16:34.997Z,5.57
2023-04-09T09:19:02.770Z,7.20
2023-04-09T09:21:30.260Z,6.05
2023-04-09T09:23:57.446Z,7.18
2023-04-09T09:26:25.955Z,6.38
2023-04-09T09:28:53.074Z,27.38
2023-04-09T09:31:21.230Z,20.13
2023-04-09T09:33:48.460Z,16.73
2023-04-09T09:36:34.642Z,12.32
2023-04-09T09:39:04.161Z,6.78
2023-04-09T09:41:31.352Z,8.57
2023-04-09T09:43:58.436Z,7.32
2023-04-09T09:46:26.480Z,5.82
2023-04-09T09:48:53.804Z,7.85
2023-04-09T09:51:22.810Z,9.10
2023-04-09T09:53:49.997Z,8.48
2023-04-09T09:56:27.119Z,5.85
2023-04-09T09:59:24.776Z,7.85
2023-04-09T10:02:01.419Z,7.47
2023-04-09T10:04:29.520Z,9.45
2023-04-09T10:06:56.813Z,8.15
2023-04-09T10:09:24.220Z,9.45
2023-04-09T10:11:51.303Z,7.82
2023-04-09T10:14:18.282Z,7.13
2023-04-09T10:16:45.531Z,6.70
2023-04-09T10:19:15.689Z,8.48
2023-04-09T10:21:53.497Z,9.02
2023-04-09T10:24:20.758Z,7.13
2023-04-09T10:26:47.777Z,10.45
2023-04-09T10:29:15.997Z,16.52
2023-04-09T10:32:03.542Z,8.45
2023-04-09T10:34:30.588Z,7.32
2023-04-09T10:36:58.076Z,9.77
2023-04-09T10:39:29.900Z,9.07
2023-04-09T10:41:59.609Z,7.07
2023-04-09T10:44:27.641Z,7.65
2023-04-09T10:46:55.188Z,8.43
2023-04-09T10:49:23.586Z,12.30
2023-04-09T10:52:12.635Z,8.23
2023-04-09T10:54:43.771Z,9.35
2023-04-09T10:57:11.476Z,6.28
2023-04-09T10:59:42.621Z,7.30
2023-04-09T11:02:13.807Z,11.75
2023-04-09T11:04:52.595Z,7.18
2023-04-09T11:07:19.520Z,6.80
2023-04-09T11:09:47.801Z,9.20
2023-04-09T11:12:14.726Z,8.75
2023-04-09T11:14:41.592Z,10.65
2023-04-09T11:17:08.579Z,7.72
2023-04-09T11:19:35.738Z,10.00
2023-04-09T11:22:06.988Z,9.00
2023-04-09T11:24:41.601Z,7.38
2023-04-09T11:27:08.910Z,7.43
2023-04-09T11:29:36.252Z,7.45
2023-04-09T11:32:05.324Z,9.77
2023-04-09T11:34:32.524Z,9.10
2023-04-09T11:36:59.941Z,9.77
2023-04-09T11:39:26.914Z,15.05
2023-04-09T11:41:53.871Z,8.05
2023-04-09T11:44:21.788Z,8.43
2023-04-09T11:46:49.244Z,10.60
2023-04-09T11:49:16.642Z,13.02
2023-04-09T11:51:43.740Z,13.45
2023-04-09T11:54:11.220Z,11.60
2023-04-09T11:56:38.212Z,9.05
2023-04-09T11:59:05.175Z,9.15
2023-04-09T12:01:33.081Z,9.18
2023-04-09T12:04:00.720Z,8.45
2023-04-09T12:06:28.658Z,6.72
2023-04-09T12:08:59.068Z,9.27
2023-04-09T12:11:30.024Z,9.15
2023-04-09T12:14:03.652Z,10.98
2023-04-09T12:16:34.614Z,12.45
2023-04-09T12:19:11.727Z,15.98
2023-04-09T12:21:58.627Z,8.20
2023-04-09T12:24:26.070Z,8.82
2023-04-09T12:26:53.138Z,7.85
2023-04-09T12:29:20.684Z,7.55
2023-04-09T12:31:47.795Z,8.43
2023-04-09T12:34:14.754Z,8.05
2023-04-09T12:36:41.792Z,7.55
2023-04-09T12:39:11.694Z,8.82
2023-04-09T12:41:38.632Z,8.48
2023-04-09T12:44:07.392Z,9.07
2023-04-09T12:46:34.326Z,8.45
2023-04-09T12:49:01.297Z,8.27
2023-04-09T12:51:28.671Z,8.23
2023-04-09T12:53:55.782Z,9.20
2023-04-09T12:56:22.915Z,7.70
2023-04-09T12:58:49.756Z,11.07
2023-04-09T13:01:17.138Z,7.38
2023-04-09T13:03:44.498Z,12.38
2023-04-09T13:06:11.692Z,10.50
2023-04-09T13:08:38.611Z,10.60
2023-04-09T13:11:06.027Z,12.43
2023-04-09T13:13:33.588Z,10.50
2023-04-09T13:16:00.579Z,9.73
2023-04-09T13:18:27.618Z,9.95
2023-04-09T13:20:54.553Z,8.05
2023-04-09T13:23:21.480Z,9.73
2023-04-09T13:25:48.378Z,10.32
2023-04-09T13:28:15.337Z,10.88
2023-04-09T13:30:42.268Z,8.82
2023-04-09T13:33:09.389Z,12.95
2023-04-09T13:35:36.493Z,10.13
2023-04-09T13:38:03.527Z,15.60
2023-04-09T13:40:30.545Z,9.75
2023-04-09T13:42:57.771Z,11.75
2023-04-09T13:45:24.690Z,13.68
2023-04-09T13:47:51.694Z,12.93
2023-04-09T13:50:18.817Z,13.90
2023-04-09T13:52:45.706Z,11.32
2023-04-09T13:55:12.647Z,11.18
2023-04-09T13:57:40.051Z,9.73
2023-04-09T14:00:08.285Z,9.65
2023-04-09T14:02:35.420Z,11.32
2023-04-09T14:05:04.099Z,13.07
2023-04-09T14:07:31.096Z,17.77
2023-04-09T14:09:58.228Z,15.10
2023-04-09T14:12:25.339Z,10.95
2023-04-09T14:14:52.397Z,9.13
2023-04-09T14:17:19.341Z,12.50
2023-04-09T14:19:46.362Z,10.73
2023-04-09T14:22:13.508Z,8.27
2023-04-09T14:24:40.514Z,17.27
2023-04-09T14:27:08.252Z,10.25
2023-04-09T14:29:35.377Z,12.23
2023-04-09T14:32:02.414Z,7.65
2023-04-09T14:34:30.286Z,9.95
2023-04-09T14:36:57.263Z,9.40
2023-04-09T14:39:24.283Z,9.30
2023-04-09T14:41:51.334Z,11.95
2023-04-09T14:44:18.247Z,8.98
2023-04-09T14:46:45.438Z,9.63
2023-04-09T14:49:12.554Z,18.38
2023-04-09T14:51:39.501Z,8.88
2023-04-09T14:54:06.803Z,9.30
2023-04-09T14:56:33.767Z,15.82
2023-04-09T14:59:00.762Z,15.75
2023-04-09T15:01:28.255Z,12.82
2023-04-09T15:03:55.722Z,10.50
2023-04-09T15:06:23.070Z,12.27
2023-04-09T15:08:50.014Z,15.77
2023-04-09T15:11:17.508Z,11.02
2023-04-09T15:13:44.628Z,12.10
2023-04-09T15:16:11.971Z,8.95
2023-04-09T15:18:38.951Z,8.30
2023-04-09T15:21:06.070Z,11.88
2023-04-09T15:23:35.612Z,10.70
2023-04-09T15:26:02.546Z,10.98
2023-04-09T15:28:29.493Z,11.88
2023-04-09T15:30:56.445Z,21.17
2023-04-09T15:33:23.509Z,12.43
2023-04-09T15:35:50.879Z,12.23
2023-04-09T15:38:17.918Z,11.45
2023-04-09T15:40:44.846Z,13.35
2023-04-09T15:43:11.759Z,11.23
2023-04-09T15:45:38.722Z,10.70
2023-04-09T15:48:06.132Z,11.93
2023-04-09T15:50:33.256Z,11.80
2023-04-09T15:53:00.498Z,12.60
2023-04-09T15:55:27.576Z,12.68
2023-04-09T15:57:55.197Z,8.82
2023-04-09T16:00:24.244Z,13.55
2023-04-09T16:02:53.044Z,9.75
2023-04-09T16:05:20.041Z,10.98
2023-04-09T16:07:47.013Z,13.63
2023-04-09T16:10:14.738Z,12.80
2023-04-09T16:12:41.903Z,14.15
2023-04-09T16:15:09.533Z,12.95
2023-04-09T16:17:40.992Z,18.33
2023-04-09T16:20:08.628Z,13.38
2023-04-09T16:22:35.863Z,12.93
2023-04-09T16:25:02.988Z,12.48
2023-04-09T16:27:29.989Z,11.15
2023-04-09T16:29:57.004Z,14.90
2023-04-09T16:32:24.067Z,28.13
2023-04-09T16:34:51.908Z,16.05
2023-04-09T16:37:18.816Z,14.35
2023-04-09T16:39:45.902Z,14.10
2023-04-09T16:42:13.067Z,14.90
2023-04-09T16:44:40.298Z,12.02
2023-04-09T16:47:08.324Z,15.57
2023-04-09T16:49:35.441Z,13.60
2023-04-09T16:52:02.460Z,13.43
2023-04-09T16:54:29.369Z,13.02
2023-04-09T16:56:58.601Z,11.73
2023-04-09T16:59:25.637Z,12.02
2023-04-09T17:01:52.859Z,12.93
2023-04-09T17:04:19.998Z,19.67
2023-04-09T17:06:47.276Z,16.55
2023-04-09T17:09:14.242Z,12.52
2023-04-09T17:11:42.368Z,17.25
2023-04-09T17:14:09.256Z,14.45
2023-04-09T17:16:38.204Z,12.35
2023-04-09T17:19:05.222Z,15.32
2023-04-09T17:21:32.270Z,11.93
2023-04-09T17:23:59.840Z,15.95
2023-04-09T17:26:26.917Z,14.55
2023-04-09T17:28:54.135Z,18.23
2023-04-09T17:31:24.237Z,23.02
2023-04-09T17:33:51.911Z,19.50
2023-04-09T17:36:20.022Z,16.25
2023-04-09T17:38:47.835Z,13.77
2023-04-09T17:41:14.735Z,13.80
2023-04-09T17:43:41.863Z,16.52
2023-04-09T17:46:09.155Z,14.13
2023-04-09T17:48:36.759Z,14.13
2023-04-09T17:51:04.326Z,11.82
2023-04-09T17:53:31.367Z,12.65
2023-04-09T17:55:58.442Z,13.82
2023-04-09T17:58:26.098Z,15.73
2023-04-09T18:00:53.940Z,15.35
2023-04-09T18:03:21.298Z,15.68
2023-04-09T18:05:48.737Z,15.10
2023-04-09T18:08:15.843Z,14.70
2023-04-09T18:10:42.790Z,14.57
2023-04-09T18:13:09.791Z,14.65
2023-04-09T18:15:37.253Z,15.43
2023-04-09T18:18:04.331Z,16.52
2023-04-09T18:20:31.448Z,16.52
2023-04-09T18:22:58.376Z,20.45
2023-04-09T18:25:25.591Z,15.93
2023-04-09T18:27:52.615Z,16.02
2023-04-09T18:30:19.645Z,15.18
2023-04-09T18:32:48.340Z,17.98
2023-04-09T18:35:15.702Z,17.90
2023-04-09T18:37:42.639Z,15.60
2023-04-09T18:40:12.330Z,19.20
2023-04-09T18:42:39.363Z,15.45
2023-04-09T18:45:06.564Z,16.88
2023-04-09T18:47:33.602Z,14.68
2023-04-09T18:50:00.684Z,17.48
2023-04-09T18:52:27.624Z,25.48
2023-04-09T18:54:54.825Z,29.50
2023-04-09T18:57:22.259Z,34.92
2023-04-09T18:59:49.175Z,45.08
2023-04-09T19:02:16.205Z,52.15
2023-04-09T19:04:43.595Z,49.70
2023-04-09T19:07:10.717Z,52.45
2023-04-09T19:09:38.627Z,43.88
2023-04-09T19:12:05.860Z,41.20
2023-04-09T19:14:32.801Z,41.75
2023-04-09T19:16:59.914Z,40.70
2023-04-09T19:19:29.072Z,37.20
2023-04-09T19:21:56.182Z,33.65
2023-04-09T19:24:25.959Z,33.35
2023-04-09T19:26:53.410Z,35.80
2023-04-09T19:29:20.862Z,33.67
2023-04-09T19:31:47.949Z,32.55
2023-04-09T19:34:15.754Z,28.55
2023-04-09T19:36:42.925Z,25.92
2023-04-09T19:39:11.095Z,20.95
2023-04-09T19:41:38.191Z,23.00
2023-04-09T19:44:07.384Z,19.90
2023-04-09T19:46:34.626Z,20.02
2023-04-09T19:49:01.734Z,20.35
2023-04-09T19:51:28.903Z,17.60
2023-04-09T19:53:56.466Z,19.75
2023-04-09T19:56:23.438Z,22.38
2023-04-09T19:58:50.410Z,20.00
2023-04-09T20:01:17.445Z,19.60
2023-04-09T20:03:44.698Z,18.90
2023-04-09T20:06:11.922Z,19.48
2023-04-09T20:08:39.162Z,20.95
2023-04-09T20:11:06.906Z,22.25
2023-04-09T20:13:34.225Z,26.35
2023-04-09T20:16:01.653Z,21.80
2023-04-09T20:18:28.876Z,22.02
2023-04-09T20:20:56.012Z,24.20
2023-04-09T20:23:22.945Z,25.08
2023-04-09T20:25:56.036Z,21.17
2023-04-09T20:28:23.214Z,21.00
2023-04-09T20:30:50.657Z,17.95
2023-04-09T20:33:18.088Z,19.92
2023-04-09T20:35:45.140Z,22.02
2023-04-09T20:38:12.032Z,17.70
2023-04-09T20:40:39.059Z,17.60
2023-04-09T20:43:06.543Z,18.67
2023-04-09T20:45:33.533Z,15.38
2023-04-09T20:48:01.262Z,15.43
2023-04-09T20:50:28.991Z,16.45
2023-04-09T20:52:56.151Z,15.48
2023-04-09T20:55:23.747Z,16.35
2023-04-09T20:57:50.683Z,16.60
2023-04-09T21:00:18.755Z,14.43
2023-04-09T21:02:45.957Z,19.00
2023-04-09T21:05:22.489Z,18.38
2023-04-09T21:07:51.902Z,20.40
2023-04-09T21:10:18.923Z,26.23
2023-04-09T21:12:46.053Z,28.65
2023-04-09T21:15:13.003Z,26.42
2023-04-09T21:17:40.124Z,21.92
2023-04-09T21:20:08.737Z,25.98
2023-04-09T21:22:36.075Z,23.40
2023-04-09T21:25:03.498Z,24.05
2023-04-09T21:27:31.266Z,24.67
2023-04-09T21:29:58.208Z,23.08
2023-04-09T21:32:25.422Z,24.23
2023-04-09T21:34:53.347Z,20.35
2023-04-09T21:37:20.272Z,22.35
2023-04-09T21:39:48.862Z,23.63
2023-04-09T21:42:16.029Z,23.38
2023-04-09T21:44:43.046Z,26.90
2023-04-09T21:47:12.177Z,28.25
2023-04-09T21:49:40.203Z,25.98
2023-04-09T21:52:14.357Z,34.40
2023-04-09T21:54:42.453Z,32.97
2023-04-09T21:57:09.887Z,30.67
2023-04-09T21:59:36.950Z,29.55
2023-04-09T22:02:04.776Z,33.33
2023-04-09T22:04:31.844Z,27.95
2023-04-09T22:06:58.857Z,30.63
2023-04-09T22:09:26.007Z,28.85
2023-04-09T22:11:53.629Z,28.08
2023-04-09T22:14:21.918Z,27.38
2023-04-09T22:16:48.836Z,26.63
2023-04-09T22:19:16.666Z,26.55
2023-04-09T22:21:43.568Z,27.45
2023-04-09T22:24:10.900Z,26.73
2023-04-09T22:26:39.140Z,27.17
2023-04-09T22:29:07.142Z,30.05
2023-04-09T22:31:34.057Z,26.33
2023-04-09T22:34:09.879Z,24.48
2023-04-09T22:36:44.429Z,28.48
2023-04-09T22:39:11.285Z,30.75
2023-04-09T22:41:38.640Z,25.80
2023-04-09T22:44:06.725Z,24.92
2023-04-09T22:46:34.831Z,31.50
2023-04-09T22:49:05.075Z,28.75
2023-04-09T22:51:34.737Z,35.85
2023-04-09T22:54:02.339Z,35.95
2023-04-09T22:56:31.770Z,34.67
2023-04-09T22:58:58.983Z,36.10
2023-04-09T23:01:26.543Z,36.17
2023-04-09T23:03:53.544Z,32.05
2023-04-09T23:06:21.861Z,32.60
2023-04-09T23:08:48.760Z,29.20
2023-04-09T23:11:15.800Z,23.80
2023-04-09T23:13:42.847Z,28.42
2023-04-09T23:16:10.230Z,27.70
2023-04-09T23:18:37.328Z,28.15
2023-04-09T23:21:10.715Z,26.45
2023-04-09T23:23:38.143Z,28.55
2023-04-09T23:26:05.467Z,23.20
2023-04-09T23:28:32.310Z,26.65
2023-04-09T23:30:59.429Z,25.60
2023-04-09T23:33:26.758Z,30.13
2023-04-09T23:35:54.102Z,29.13
2023-04-09T23:38:21.161Z,24.08
2023-04-09T23:40:48.932Z,24.65
2023-04-09T23:43:16.091Z,26.35
2023-04-09T23:45:43.857Z,29.40
2023-04-09T23:48:11.846Z,29.13
2023-04-09T23:50:41.749Z,28.95
2023-04-09T23:53:08.878Z,29.20
2023-04-09T23:55:40.827Z,26.17
2023-04-09T23:58:07.834Z,24.58
